Disclaimer

Please do not use the information listed here in-flight or in-navigation, as they are not provided to us by the airports but are provided by volunteers, so they might be outdated.

Search


Regions


Airport information page

Radio informations:
Tower (TWR) - 118.1 MHz
TAXI - 121.825 MHz
Ground (GND) - 121.65 MHz
Clearance delivery - 119.9 MHz
Automatic Terminal Information Service (ATIS) - 122.75 MHz
COPENHAGEN APP - 119.8 MHz

Airport informations:
Latitude: 55° 37' 04.50" N
Longitude: 012° 39' 21.50" E
Elevation: 17 feet - 5 meters
Operating hours: 24 hour operations
Operating agency: Civil government, landing fees and diplomatic clearance may be required
Timezone: UTC+1(+2DT) - Last Sunday in March to last Sunday in October
Fuel: Jet A1, without icing nhibitor.

100/130 MIL Spec, low lead, aviation gasoline (BLUE)

Runway information:
04R/22L - 10827 x 148 feet< - >3300 x 45 meters
04L/22R - 11811 x 148 feet< - >3600 x 45 meters
12/30 - 10072 x 148 feet< - >3070 x 45 meters

Recent METARs:
EKCH 211850Z 09014KT 050V110 9999 BKN023 05/01 Q1029 NOSIG
EKCH 211920Z 09013KT 9999 BKN026 05/00 Q1029 NOSIG
EKCH 211950Z 09013KT 9999 BKN027 05/M00 Q1029 NOSIG

Airport on the map: